createdAt,value
2017-08-26T00:01:01.620Z,90.10
2017-08-26T00:03:29.864Z,90.20
2017-08-26T00:05:57.326Z,90.20
2017-08-26T00:08:24.816Z,90.40
2017-08-26T00:10:52.285Z,90.50
2017-08-26T00:13:19.815Z,90.70
2017-08-26T00:15:47.295Z,90.60
2017-08-26T00:18:14.779Z,90.60
2017-08-26T00:20:42.280Z,90.70
2017-08-26T00:23:09.755Z,90.90
2017-08-26T00:25:37.223Z,90.90
2017-08-26T00:28:05.460Z,90.80
2017-08-26T00:30:32.940Z,90.80
2017-08-26T00:33:00.409Z,90.70
2017-08-26T00:35:27.866Z,90.60
2017-08-26T00:37:55.395Z,90.70
2017-08-26T00:40:22.972Z,90.80
2017-08-26T00:42:50.471Z,91.00
2017-08-26T00:45:17.948Z,91.10
2017-08-26T00:47:45.445Z,91.10
2017-08-26T00:50:12.907Z,91.00
2017-08-26T00:52:40.443Z,90.90
2017-08-26T00:55:08.054Z,90.90
2017-08-26T00:57:35.573Z,90.90
2017-08-26T01:00:03.120Z,91.00
2017-08-26T01:02:30.685Z,90.80
2017-08-26T01:04:58.243Z,90.80
2017-08-26T01:07:31.511Z,90.80
2017-08-26T01:09:58.975Z,90.80
2017-08-26T01:12:26.447Z,90.80
2017-08-26T01:14:53.932Z,90.80
2017-08-26T01:17:22.160Z,91.10
2017-08-26T01:19:49.620Z,91.00
2017-08-26T01:22:17.915Z,91.10
2017-08-26T01:24:45.391Z,91.10
2017-08-26T01:27:12.860Z,91.20
2017-08-26T01:29:40.411Z,91.00
2017-08-26T01:32:07.872Z,91.00
2017-08-26T01:34:35.347Z,91.10
2017-08-26T01:37:02.834Z,91.00
2017-08-26T01:39:30.310Z,90.90
2017-08-26T01:41:58.243Z,90.80
2017-08-26T01:44:25.717Z,90.90
2017-08-26T01:46:53.191Z,90.90
2017-08-26T01:49:20.660Z,91.00
2017-08-26T01:51:48.147Z,90.80
2017-08-26T01:54:15.679Z,90.90
2017-08-26T01:56:43.244Z,90.80
2017-08-26T01:59:10.728Z,90.70
2017-08-26T02:01:38.233Z,90.80
2017-08-26T02:04:05.698Z,90.70
2017-08-26T02:06:33.249Z,90.90
2017-08-26T02:09:00.819Z,90.70
2017-08-26T02:11:28.276Z,90.70
2017-08-26T02:13:55.876Z,90.80
2017-08-26T02:16:23.330Z,90.70
2017-08-26T02:18:51.598Z,90.70
2017-08-26T02:21:19.079Z,90.90
2017-08-26T02:23:46.571Z,91.30
2017-08-26T02:26:14.033Z,90.90
2017-08-26T02:28:41.513Z,90.90
2017-08-26T02:31:08.967Z,91.10
2017-08-26T02:33:37.219Z,91.10
2017-08-26T02:36:04.691Z,91.10
2017-08-26T02:38:32.233Z,91.00
2017-08-26T02:40:59.699Z,91.10
2017-08-26T02:43:27.176Z,91.30
2017-08-26T02:45:54.704Z,91.10
2017-08-26T02:48:22.163Z,91.40
2017-08-26T02:50:49.723Z,91.60
2017-08-26T02:53:17.285Z,91.70
2017-08-26T02:55:44.742Z,91.40
2017-08-26T02:58:13.019Z,91.50
2017-08-26T03:00:41.252Z,91.70
2017-08-26T03:03:08.758Z,91.60
2017-08-26T03:05:36.263Z,91.50
2017-08-26T03:08:03.771Z,91.40
2017-08-26T03:10:32.030Z,91.70
2017-08-26T03:12:59.507Z,91.60
2017-08-26T03:15:27.043Z,91.60
2017-08-26T03:17:54.519Z,91.70
2017-08-26T03:20:21.987Z,91.60
2017-08-26T03:22:49.451Z,91.40
2017-08-26T03:25:16.915Z,91.30
2017-08-26T03:27:44.417Z,91.30
2017-08-26T03:30:12.507Z,91.40
2017-08-26T03:32:39.979Z,91.20
2017-08-26T03:35:07.468Z,91.30
2017-08-26T03:37:35.026Z,91.40
2017-08-26T03:40:02.526Z,91.30
2017-08-26T03:42:30.102Z,91.30
2017-08-26T03:44:57.564Z,91.30
2017-08-26T03:47:25.029Z,91.30
2017-08-26T03:49:53.379Z,91.20
2017-08-26T03:52:20.863Z,91.60
2017-08-26T03:54:48.538Z,91.20
2017-08-26T03:57:16.022Z,91.10
2017-08-26T03:59:43.514Z,91.20
2017-08-26T04:02:10.986Z,91.30
2017-08-26T04:04:39.251Z,91.30
2017-08-26T04:07:06.721Z,91.30
2017-08-26T04:09:34.888Z,91.60
2017-08-26T04:12:02.439Z,91.60
2017-08-26T04:14:29.910Z,91.50
2017-08-26T04:16:57.370Z,91.50
2017-08-26T04:19:24.852Z,91.50
2017-08-26T04:21:53.383Z,91.50
2017-08-26T04:24:20.858Z,91.50
2017-08-26T04:26:48.337Z,91.50
2017-08-26T04:29:15.809Z,91.60
2017-08-26T04:31:43.273Z,91.70
2017-08-26T04:34:10.784Z,91.80
2017-08-26T04:36:38.253Z,91.80
2017-08-26T04:39:05.714Z,91.60
2017-08-26T04:41:34.057Z,91.70
2017-08-26T04:44:01.632Z,91.70
2017-08-26T04:46:29.873Z,91.90
2017-08-26T04:48:57.369Z,91.90
2017-08-26T04:51:25.638Z,91.80
2017-08-26T04:53:53.110Z,91.80
2017-08-26T04:56:20.598Z,92.00
2017-08-26T04:58:48.280Z,92.10
2017-08-26T05:01:15.751Z,92.00
2017-08-26T05:03:43.268Z,91.90
2017-08-26T05:06:10.836Z,91.90
2017-08-26T05:08:38.299Z,92.00
2017-08-26T05:11:05.789Z,92.30
2017-08-26T05:13:34.092Z,91.80
2017-08-26T05:16:01.556Z,91.80
2017-08-26T05:18:29.042Z,92.30
2017-08-26T05:20:57.339Z,91.90
2017-08-26T05:23:24.824Z,91.90
2017-08-26T05:25:52.329Z,92.00
2017-08-26T05:28:19.839Z,92.00
2017-08-26T05:30:47.411Z,91.70
2017-08-26T05:33:14.914Z,91.70
2017-08-26T05:35:42.431Z,91.80
2017-08-26T05:38:09.962Z,91.80
2017-08-26T05:40:37.446Z,91.70
2017-08-26T05:43:04.914Z,91.80
2017-08-26T05:45:32.397Z,91.90
2017-08-26T05:47:59.891Z,91.70
2017-08-26T05:50:27.446Z,91.60
2017-08-26T05:52:54.926Z,91.70
2017-08-26T05:55:22.439Z,91.90
2017-08-26T05:57:49.924Z,91.50
2017-08-26T06:00:17.395Z,91.60
2017-08-26T06:02:44.923Z,91.50
2017-08-26T06:05:12.399Z,91.90
2017-08-26T06:07:39.884Z,92.10
2017-08-26T06:10:07.587Z,91.90
2017-08-26T06:12:35.060Z,91.80
2017-08-26T06:15:02.539Z,91.60
2017-08-26T06:17:30.095Z,91.60
2017-08-26T06:19:57.573Z,91.60
2017-08-26T06:22:25.032Z,91.60
2017-08-26T06:24:52.527Z,91.30
2017-08-26T06:27:20.012Z,91.40
2017-08-26T06:29:47.500Z,91.30
2017-08-26T06:32:15.380Z,91.30
2017-08-26T06:34:42.908Z,91.20
2017-08-26T06:37:10.383Z,91.00
2017-08-26T06:39:37.863Z,90.80
2017-08-26T06:42:05.338Z,90.80
2017-08-26T06:44:32.839Z,90.40
2017-08-26T06:47:01.084Z,83.90
2017-08-26T06:49:28.550Z,83.90
2017-08-26T06:51:56.212Z,79.50
2017-08-26T06:54:23.794Z,76.60
2017-08-26T06:56:52.280Z,74.90
2017-08-26T06:59:19.820Z,72.70
2017-08-26T07:01:47.371Z,71.60
2017-08-26T07:04:14.848Z,70.20
2017-08-26T07:06:42.487Z,68.70
2017-08-26T07:09:10.179Z,68.10
2017-08-26T07:11:37.731Z,67.60
2017-08-26T07:14:05.196Z,68.10
2017-08-26T07:16:32.681Z,67.20
2017-08-26T07:19:00.184Z,66.10
2017-08-26T07:21:27.739Z,66.80
2017-08-26T07:23:55.309Z,67.00
2017-08-26T07:26:22.833Z,68.00
2017-08-26T07:28:50.305Z,69.90
2017-08-26T07:31:17.765Z,70.80
2017-08-26T07:33:45.266Z,70.70
2017-08-26T07:36:12.736Z,71.10
2017-08-26T07:38:40.195Z,70.80
2017-08-26T07:41:07.708Z,69.80
2017-08-26T07:43:36.153Z,69.70
2017-08-26T07:46:03.634Z,71.20
2017-08-26T07:48:31.205Z,71.90
2017-08-26T07:50:59.475Z,71.10
2017-08-26T07:53:27.031Z,71.10
2017-08-26T07:55:54.952Z,70.70
2017-08-26T07:58:22.611Z,70.00
2017-08-26T08:00:50.104Z,69.50
2017-08-26T08:03:17.602Z,69.60
2017-08-26T08:05:45.128Z,68.80
2017-08-26T08:08:12.596Z,69.40
2017-08-26T08:10:40.092Z,67.50
2017-08-26T08:13:07.608Z,67.60
2017-08-26T08:15:35.151Z,66.20
2017-08-26T08:18:02.771Z,67.30
2017-08-26T08:20:30.224Z,66.20
2017-08-26T08:22:57.694Z,66.00
2017-08-26T08:25:25.222Z,63.70
2017-08-26T08:27:52.748Z,61.80
2017-08-26T08:30:20.307Z,61.60
2017-08-26T08:32:48.701Z,60.30
2017-08-26T08:35:16.974Z,60.90
2017-08-26T08:37:44.439Z,58.50
2017-08-26T08:40:12.798Z,60.20
2017-08-26T08:42:40.343Z,60.10
2017-08-26T08:45:07.927Z,59.90
2017-08-26T08:47:36.514Z,58.50
2017-08-26T08:50:04.046Z,58.20
2017-08-26T08:52:31.511Z,58.70
2017-08-26T08:54:58.981Z,59.90
2017-08-26T08:57:26.443Z,59.80
2017-08-26T08:59:53.984Z,59.90
2017-08-26T09:02:21.463Z,60.40
2017-08-26T09:04:49.152Z,60.50
2017-08-26T09:07:16.671Z,60.10
2017-08-26T09:09:44.235Z,60.60
2017-08-26T09:12:11.780Z,59.60
2017-08-26T09:14:39.235Z,59.30
2017-08-26T09:17:07.772Z,58.60
2017-08-26T09:19:35.290Z,58.60
2017-08-26T09:22:02.740Z,57.10
2017-08-26T09:24:31.313Z,57.60
2017-08-26T09:26:59.283Z,57.50
2017-08-26T09:29:26.751Z,57.10
2017-08-26T09:31:54.991Z,57.60
2017-08-26T09:34:22.453Z,57.60
2017-08-26T09:36:50.535Z,57.10
2017-08-26T09:39:18.006Z,55.00
2017-08-26T09:41:45.468Z,54.20
2017-08-26T09:44:12.940Z,54.60
2017-08-26T09:46:40.424Z,54.60
2017-08-26T09:49:07.879Z,54.30
2017-08-26T09:51:35.380Z,53.40
2017-08-26T09:54:03.116Z,53.80
2017-08-26T09:56:30.596Z,53.40
2017-08-26T09:58:58.310Z,53.60
2017-08-26T10:01:25.827Z,52.90
2017-08-26T10:03:53.292Z,52.30
2017-08-26T10:06:20.752Z,52.00
2017-08-26T10:08:48.260Z,51.20
2017-08-26T10:11:15.755Z,50.70
2017-08-26T10:13:43.312Z,49.80
2017-08-26T10:16:10.771Z,50.20
2017-08-26T10:18:38.330Z,50.10
2017-08-26T10:21:05.879Z,50.10
2017-08-26T10:23:33.552Z,49.60
2017-08-26T10:26:01.024Z,49.80
2017-08-26T10:28:29.295Z,50.30
2017-08-26T10:30:56.771Z,50.30
2017-08-26T10:33:24.264Z,50.00
2017-08-26T10:35:51.739Z,49.20
2017-08-26T10:38:19.239Z,49.80
2017-08-26T10:40:46.716Z,51.60
2017-08-26T10:43:14.188Z,50.10
2017-08-26T10:45:41.663Z,51.20
2017-08-26T10:48:09.140Z,52.80
2017-08-26T10:50:36.608Z,51.00
2017-08-26T10:53:04.107Z,50.70
2017-08-26T10:55:31.598Z,50.20
2017-08-26T10:57:59.059Z,50.40
2017-08-26T11:00:26.532Z,50.70
2017-08-26T11:02:54.087Z,50.20
2017-08-26T11:05:22.314Z,51.80
2017-08-26T11:07:49.787Z,51.80
2017-08-26T11:10:17.363Z,50.60
2017-08-26T11:12:44.835Z,49.90
2017-08-26T11:15:12.375Z,50.30
2017-08-26T11:17:39.853Z,49.10
2017-08-26T11:20:07.345Z,49.40
2017-08-26T11:22:34.832Z,49.70
2017-08-26T11:25:02.312Z,49.10
2017-08-26T11:27:29.772Z,50.30
2017-08-26T11:29:57.261Z,48.70
2017-08-26T11:32:24.732Z,48.10
2017-08-26T11:34:52.341Z,49.40
2017-08-26T11:37:19.897Z,48.90
2017-08-26T11:39:47.529Z,47.90
2017-08-26T11:42:14.992Z,47.40
2017-08-26T11:44:42.489Z,48.40
2017-08-26T11:47:09.960Z,49.70
2017-08-26T11:49:37.420Z,49.70
2017-08-26T11:52:05.655Z,49.20
2017-08-26T11:54:33.211Z,49.70
2017-08-26T11:57:00.857Z,50.30
2017-08-26T11:59:28.687Z,50.70
2017-08-26T12:01:56.898Z,51.00
2017-08-26T12:04:24.776Z,51.60
2017-08-26T12:06:52.265Z,49.50
2017-08-26T12:09:20.520Z,50.30
2017-08-26T12:11:47.997Z,50.20
2017-08-26T12:14:16.248Z,49.90
2017-08-26T12:16:43.807Z,49.30
2017-08-26T12:19:11.286Z,49.10
2017-08-26T12:21:39.515Z,48.70
2017-08-26T12:24:07.091Z,48.70
2017-08-26T12:26:35.159Z,49.60
2017-08-26T12:29:02.647Z,49.80
2017-08-26T12:31:30.892Z,51.10
2017-08-26T12:33:58.455Z,51.00
2017-08-26T12:36:25.935Z,51.00
2017-08-26T12:38:54.197Z,50.60
2017-08-26T12:41:21.668Z,50.60
2017-08-26T12:43:49.130Z,50.00
2017-08-26T12:46:16.687Z,50.80
2017-08-26T12:48:44.916Z,51.30
2017-08-26T12:51:12.375Z,51.30
2017-08-26T12:53:39.846Z,50.50
2017-08-26T12:56:07.364Z,50.40
2017-08-26T12:58:35.151Z,51.00
2017-08-26T13:01:02.730Z,50.70
2017-08-26T13:03:30.192Z,51.10
2017-08-26T13:05:57.679Z,51.70
2017-08-26T13:08:25.201Z,52.20
2017-08-26T13:10:52.655Z,51.30
2017-08-26T13:13:20.221Z,51.60
2017-08-26T13:15:47.988Z,52.40
2017-08-26T13:18:15.465Z,51.90
2017-08-26T13:20:42.927Z,52.40
2017-08-26T13:23:10.778Z,52.50
2017-08-26T13:25:39.020Z,51.90
2017-08-26T13:28:06.491Z,51.90
2017-08-26T13:30:34.185Z,52.40
2017-08-26T13:33:01.725Z,52.20
2017-08-26T13:35:29.998Z,53.10
2017-08-26T13:37:58.888Z,53.10
2017-08-26T13:40:27.154Z,54.20
2017-08-26T13:42:54.713Z,54.20
2017-08-26T13:45:22.196Z,53.70
2017-08-26T13:47:49.691Z,54.00
2017-08-26T13:50:17.176Z,54.00
2017-08-26T13:52:44.892Z,54.40
2017-08-26T13:55:12.360Z,53.10
2017-08-26T13:57:39.862Z,53.10
2017-08-26T14:00:08.231Z,53.30
2017-08-26T14:02:35.814Z,54.30
2017-08-26T14:05:03.274Z,53.90
2017-08-26T14:07:31.008Z,54.30
2017-08-26T14:09:58.491Z,54.10
2017-08-26T14:12:25.959Z,54.20
2017-08-26T14:14:53.503Z,53.80
2017-08-26T14:17:20.968Z,54.00
2017-08-26T14:19:48.503Z,53.20
2017-08-26T14:22:16.683Z,54.10
2017-08-26T14:24:44.231Z,54.40
2017-08-26T14:27:11.785Z,52.90
2017-08-26T14:29:39.255Z,53.00
2017-08-26T14:32:06.723Z,51.70
2017-08-26T14:34:34.995Z,50.50
2017-08-26T14:37:03.518Z,49.20
2017-08-26T14:39:30.978Z,49.20
2017-08-26T14:41:58.444Z,52.80
2017-08-26T14:44:26.028Z,53.60
2017-08-26T14:46:53.904Z,54.80
2017-08-26T14:49:21.375Z,55.80
2017-08-26T14:51:48.921Z,56.40
2017-08-26T14:54:17.456Z,56.80
2017-08-26T14:56:44.933Z,56.50
2017-08-26T14:59:13.192Z,56.90
2017-08-26T15:01:40.663Z,56.90
2017-08-26T15:04:08.145Z,57.30
2017-08-26T15:06:35.627Z,57.30
2017-08-26T15:09:03.118Z,56.70
2017-08-26T15:11:30.576Z,56.80
2017-08-26T15:13:58.815Z,57.20
2017-08-26T15:16:26.363Z,56.70
2017-08-26T15:18:53.831Z,56.80
2017-08-26T15:21:21.291Z,57.00
2017-08-26T15:23:49.702Z,57.60
2017-08-26T15:26:17.204Z,58.60
2017-08-26T15:28:44.772Z,58.40
2017-08-26T15:31:13.119Z,58.90
2017-08-26T15:33:40.641Z,58.90
2017-08-26T15:36:08.139Z,58.50
2017-08-26T15:38:35.624Z,59.30
2017-08-26T15:41:03.147Z,58.60
2017-08-26T15:43:30.719Z,58.60
2017-08-26T15:45:58.484Z,59.10
2017-08-26T15:48:26.034Z,59.30
2017-08-26T15:50:53.598Z,60.10
2017-08-26T15:53:21.359Z,60.60
2017-08-26T15:55:48.923Z,60.10
2017-08-26T15:58:16.504Z,59.80
2017-08-26T16:00:44.056Z,59.30
2017-08-26T16:03:11.522Z,59.60
2017-08-26T16:05:39.019Z,60.10
2017-08-26T16:08:06.501Z,61.00
2017-08-26T16:10:33.959Z,62.40
2017-08-26T16:13:01.553Z,63.20
2017-08-26T16:15:29.035Z,62.70
2017-08-26T16:17:56.650Z,63.10
2017-08-26T16:20:24.203Z,63.80
2017-08-26T16:22:51.769Z,64.90
2017-08-26T16:25:19.236Z,66.20
2017-08-26T16:27:48.552Z,67.90
2017-08-26T16:30:16.079Z,68.60
2017-08-26T16:32:43.634Z,69.20
2017-08-26T16:35:11.193Z,69.70
2017-08-26T16:37:39.279Z,70.50
2017-08-26T16:40:06.740Z,71.30
2017-08-26T16:42:34.211Z,72.20
2017-08-26T16:45:01.695Z,72.90
2017-08-26T16:47:29.349Z,73.00
2017-08-26T16:49:56.839Z,73.00
2017-08-26T16:52:25.508Z,72.80
2017-08-26T16:54:52.976Z,72.80
2017-08-26T16:57:20.447Z,72.60
2017-08-26T16:59:48.007Z,72.40
2017-08-26T17:02:16.004Z,72.20
2017-08-26T17:04:43.534Z,72.90
2017-08-26T17:07:11.144Z,72.90
2017-08-26T17:09:38.651Z,71.30
2017-08-26T17:12:06.216Z,70.30
2017-08-26T17:14:33.767Z,70.80
2017-08-26T17:17:01.553Z,71.40
2017-08-26T17:19:29.024Z,72.30
2017-08-26T17:21:58.296Z,72.30
2017-08-26T17:24:25.868Z,72.20
2017-08-26T17:26:53.528Z,72.90
2017-08-26T17:29:21.071Z,73.60
2017-08-26T17:31:48.563Z,74.10
2017-08-26T17:34:16.056Z,74.20
2017-08-26T17:36:43.533Z,74.60
2017-08-26T17:39:11.355Z,75.50
2017-08-26T17:41:39.136Z,75.40
2017-08-26T17:44:06.703Z,76.00
2017-08-26T17:46:34.645Z,76.70
2017-08-26T17:49:05.799Z,77.80
2017-08-26T17:51:33.400Z,78.50
2017-08-26T17:54:01.187Z,78.80
2017-08-26T17:56:29.156Z,78.90
2017-08-26T17:58:57.340Z,79.00
2017-08-26T18:01:25.402Z,78.90
2017-08-26T18:03:53.483Z,79.30
2017-08-26T18:06:21.156Z,79.30
2017-08-26T18:08:48.882Z,79.20
2017-08-26T18:11:17.803Z,79.50
2017-08-26T18:13:45.990Z,79.50
2017-08-26T18:16:13.461Z,79.00
2017-08-26T18:18:40.952Z,79.10
2017-08-26T18:21:08.429Z,78.40
2017-08-26T18:23:38.187Z,78.90
2017-08-26T18:26:05.771Z,79.10
2017-08-26T18:28:33.814Z,79.30
2017-08-26T18:31:01.331Z,79.70
2017-08-26T18:33:28.873Z,79.70
2017-08-26T18:35:56.427Z,80.00
2017-08-26T18:38:23.890Z,80.40
2017-08-26T18:40:51.647Z,80.70
2017-08-26T18:43:19.195Z,81.20
2017-08-26T18:45:46.760Z,80.50
2017-08-26T18:48:14.352Z,81.00
2017-08-26T18:50:41.841Z,81.20
2017-08-26T18:53:09.337Z,81.30
2017-08-26T18:55:36.828Z,81.30
2017-08-26T18:58:04.351Z,81.00
2017-08-26T19:00:31.820Z,81.50
2017-08-26T19:02:59.536Z,81.60
2017-08-26T19:05:27.700Z,81.60
2017-08-26T19:07:55.258Z,82.00
2017-08-26T19:10:22.737Z,82.10
2017-08-26T19:12:50.227Z,82.10
2017-08-26T19:15:17.767Z,82.40
2017-08-26T19:17:45.253Z,82.40
2017-08-26T19:20:12.743Z,82.40
2017-08-26T19:22:40.212Z,82.50
2017-08-26T19:25:07.692Z,82.60
2017-08-26T19:27:35.160Z,82.70
2017-08-26T19:30:02.727Z,82.80
2017-08-26T19:32:30.208Z,83.20
2017-08-26T19:34:57.709Z,83.40
2017-08-26T19:37:25.180Z,84.00
2017-08-26T19:39:52.686Z,84.30
2017-08-26T19:42:20.208Z,84.40
2017-08-26T19:44:47.679Z,84.40
2017-08-26T19:47:15.156Z,84.60
2017-08-26T19:49:42.635Z,84.80
2017-08-26T19:52:10.140Z,84.80
2017-08-26T19:54:37.611Z,84.80
2017-08-26T19:57:05.878Z,85.00
2017-08-26T19:59:33.635Z,85.00
2017-08-26T20:02:01.100Z,85.10
2017-08-26T20:04:28.653Z,84.60
2017-08-26T20:06:56.185Z,85.30
2017-08-26T20:09:23.762Z,85.10
2017-08-26T20:11:51.247Z,85.10
2017-08-26T20:14:18.799Z,85.50
2017-08-26T20:16:46.269Z,85.40
2017-08-26T20:19:13.744Z,85.90
2017-08-26T20:21:41.216Z,85.80
2017-08-26T20:24:08.684Z,85.10
2017-08-26T20:26:36.269Z,85.40
2017-08-26T20:29:03.843Z,85.10
2017-08-26T20:31:31.315Z,84.80
2017-08-26T20:33:58.792Z,84.80
2017-08-26T20:36:26.563Z,85.00
2017-08-26T20:38:54.057Z,85.40
2017-08-26T20:41:21.614Z,84.10
2017-08-26T20:43:49.094Z,84.00
2017-08-26T20:46:16.633Z,84.20
2017-08-26T20:48:44.129Z,84.10
2017-08-26T20:51:11.653Z,84.00
2017-08-26T20:53:39.223Z,83.70
2017-08-26T20:56:06.686Z,84.10
2017-08-26T20:58:34.196Z,83.60
2017-08-26T21:01:01.669Z,84.10
2017-08-26T21:03:29.139Z,84.00
2017-08-26T21:05:56.659Z,84.70
2017-08-26T21:08:24.327Z,85.40
2017-08-26T21:10:51.916Z,84.20
2017-08-26T21:13:19.708Z,84.20
2017-08-26T21:15:47.237Z,84.50
2017-08-26T21:18:14.703Z,85.20
2017-08-26T21:20:42.427Z,85.20
2017-08-26T21:23:09.952Z,85.30
2017-08-26T21:25:37.452Z,85.60
2017-08-26T21:28:04.959Z,85.30
2017-08-26T21:30:33.443Z,85.60
2017-08-26T21:33:00.979Z,85.60
2017-08-26T21:35:28.465Z,85.60
2017-08-26T21:37:57.116Z,85.50
2017-08-26T21:40:24.811Z,85.80
2017-08-26T21:42:52.336Z,86.60
2017-08-26T21:45:19.832Z,86.40
2017-08-26T21:47:47.352Z,86.60
2017-08-26T21:50:15.503Z,86.50
2017-08-26T21:52:42.974Z,87.10
2017-08-26T21:55:10.595Z,87.50
2017-08-26T21:57:38.222Z,88.30
2017-08-26T22:00:05.684Z,88.90
2017-08-26T22:02:33.251Z,88.50
2017-08-26T22:05:00.795Z,88.60
2017-08-26T22:07:28.328Z,88.40
2017-08-26T22:09:55.791Z,88.30
2017-08-26T22:12:23.295Z,88.40
2017-08-26T22:14:50.792Z,88.50
2017-08-26T22:17:18.258Z,88.70
2017-08-26T22:19:45.749Z,88.90
2017-08-26T22:22:13.219Z,88.70
2017-08-26T22:24:40.712Z,89.10
2017-08-26T22:27:08.226Z,89.00
2017-08-26T22:29:35.746Z,89.00
2017-08-26T22:32:03.206Z,89.10
2017-08-26T22:34:36.921Z,89.10
2017-08-26T22:37:04.510Z,90.10
2017-08-26T22:39:32.198Z,89.60
2017-08-26T22:41:59.845Z,89.60
2017-08-26T22:44:27.665Z,89.60
2017-08-26T22:46:55.128Z,89.60
2017-08-26T22:49:23.384Z,89.90
2017-08-26T22:51:50.939Z,89.80
2017-08-26T22:54:18.500Z,89.80
2017-08-26T22:56:45.979Z,90.00
2017-08-26T22:59:14.236Z,90.00
2017-08-26T23:01:41.792Z,90.00
2017-08-26T23:04:09.271Z,90.10
2017-08-26T23:06:36.952Z,89.60
2017-08-26T23:09:04.427Z,90.00
2017-08-26T23:11:31.913Z,89.70
2017-08-26T23:13:59.462Z,89.40
2017-08-26T23:16:26.924Z,89.40
2017-08-26T23:18:54.405Z,89.60
2017-08-26T23:21:21.975Z,89.50
2017-08-26T23:23:50.209Z,90.00
2017-08-26T23:26:17.780Z,90.00
2017-08-26T23:28:45.392Z,89.80
2017-08-26T23:31:12.904Z,89.70
2017-08-26T23:33:40.465Z,90.00
2017-08-26T23:36:08.011Z,90.10
2017-08-26T23:38:36.391Z,90.20
2017-08-26T23:41:03.959Z,90.20
2017-08-26T23:43:31.419Z,90.30
2017-08-26T23:45:58.970Z,90.40
2017-08-26T23:48:26.447Z,90.40
2017-08-26T23:50:53.907Z,90.50
2017-08-26T23:53:22.159Z,90.40
2017-08-26T23:55:49.715Z,90.40
2017-08-26T23:58:17.271Z,90.50
